createdAt,value
2023-03-05T00:03:05.726Z,78.20
2023-03-05T00:13:06.070Z,78.66
2023-03-05T00:23:06.092Z,78.42
2023-03-05T00:33:06.438Z,78.24
2023-03-05T00:43:06.475Z,78.14
2023-03-05T00:53:06.800Z,78.14
2023-03-05T01:03:06.883Z,77.89
2023-03-05T01:13:06.950Z,78.52
2023-03-05T01:23:06.980Z,77.79
2023-03-05T01:33:07.328Z,78.31
2023-03-05T01:43:07.389Z,78.31
2023-03-05T01:53:07.701Z,77.79
2023-03-05T02:03:07.736Z,79.04
2023-03-05T02:13:08.059Z,78.73
2023-03-05T02:23:08.080Z,78.94
2023-03-05T02:33:08.433Z,79.14
2023-03-05T02:43:08.457Z,79.04
2023-03-05T02:53:08.797Z,78.80
2023-03-05T03:03:08.880Z,78.90
2023-03-05T03:13:09.060Z,79.25
2023-03-05T03:23:09.105Z,79.25
2023-03-05T03:33:09.476Z,78.94
2023-03-05T03:43:09.533Z,78.94
2023-03-05T03:53:09.659Z,79.04
2023-03-05T04:03:09.678Z,79.14
2023-03-05T04:13:09.987Z,79.87
2023-03-05T04:23:10.273Z,79.56
2023-03-05T04:33:10.184Z,78.73
2023-03-05T04:43:10.211Z,78.20
2023-03-05T04:53:10.620Z,77.89
2023-03-05T05:03:10.681Z,78.00
2023-03-05T05:13:10.782Z,78.31
2023-03-05T05:23:11.042Z,78.20
2023-03-05T05:33:11.341Z,78.52
2023-03-05T05:43:11.521Z,78.31
2023-03-05T05:53:11.766Z,78.52
2023-03-05T06:03:12.057Z,78.52
2023-03-05T06:13:12.148Z,78.83
2023-03-05T06:23:12.381Z,80.19
2023-03-05T06:33:15.739Z,79.80
2023-03-05T06:43:12.766Z,79.28
2023-03-05T06:53:13.014Z,78.97
2023-03-05T07:03:13.251Z,80.02
2023-03-05T07:13:13.637Z,79.46
2023-03-05T07:23:13.654Z,79.35
2023-03-05T07:33:13.985Z,78.59
2023-03-05T07:43:14.018Z,79.55
2023-03-05T07:53:14.362Z,78.14
2023-03-05T08:03:14.388Z,78.20
2023-03-05T08:13:14.829Z,77.92
2023-03-05T08:23:14.927Z,77.37
2023-03-05T08:33:15.074Z,75.78
2023-03-05T08:43:15.136Z,74.67
2023-03-05T08:53:17.207Z,72.36
2023-03-05T09:03:15.527Z,71.84
2023-03-05T09:13:15.765Z,69.51
2023-03-05T09:23:15.781Z,67.30
2023-03-05T09:33:16.128Z,67.24
2023-03-05T09:43:16.219Z,65.91
2023-03-05T09:53:16.276Z,66.60
2023-03-05T10:03:16.574Z,62.87
2023-03-05T10:13:16.646Z,64.72
2023-03-05T10:23:16.671Z,65.23
2023-03-05T10:33:17.017Z,63.53
2023-03-05T10:43:17.051Z,62.75
2023-03-05T10:53:17.380Z,61.29
2023-03-05T11:03:17.415Z,59.47
2023-03-05T11:13:17.654Z,59.08
2023-03-05T11:23:18.116Z,59.25
2023-03-05T11:33:18.260Z,57.92
2023-03-05T11:43:18.160Z,56.07
2023-03-05T11:53:18.497Z,57.25
2023-03-05T12:03:18.540Z,55.72
2023-03-05T12:13:18.763Z,53.90
2023-03-05T12:23:19.012Z,53.31
2023-03-05T12:33:19.582Z,53.47
2023-03-05T12:43:19.569Z,53.57
2023-03-05T12:53:19.863Z,51.95
2023-03-05T13:03:20.120Z,51.01
2023-03-05T13:13:21.301Z,51.27
2023-03-05T13:23:20.330Z,51.25
2023-03-05T13:33:21.280Z,50.45
2023-03-05T13:43:20.802Z,50.99
2023-03-05T13:53:21.083Z,50.25
2023-03-05T14:03:25.176Z,50.91
2023-03-05T14:13:21.125Z,48.49
2023-03-05T14:23:26.415Z,48.86
2023-03-05T14:33:22.355Z,49.09
2023-03-05T14:43:21.557Z,49.63
2023-03-05T14:53:21.736Z,48.99
2023-03-05T15:03:21.848Z,48.40
2023-03-05T15:13:22.151Z,49.77
2023-03-05T15:23:25.734Z,49.98
2023-03-05T15:33:22.532Z,47.19
2023-03-05T15:43:22.848Z,51.39
2023-03-05T15:53:22.864Z,51.64
2023-03-05T16:03:27.559Z,52.94
2023-03-05T16:13:23.235Z,54.13
2023-03-05T16:23:24.485Z,55.49
2023-03-05T16:33:23.448Z,56.85
2023-03-05T16:43:24.038Z,58.25
2023-03-05T16:53:24.089Z,59.74
2023-03-05T17:03:24.306Z,61.11
2023-03-05T17:13:24.519Z,60.55
2023-03-05T17:23:24.791Z,60.06
2023-03-05T17:33:24.984Z,59.85
2023-03-05T17:43:25.995Z,60.09
2023-03-05T17:53:25.279Z,60.22
2023-03-05T18:03:32.009Z,59.73
2023-03-05T18:13:33.601Z,61.07
2023-03-05T18:23:26.028Z,60.04
2023-03-05T18:33:26.310Z,63.02
2023-03-05T18:43:26.361Z,63.37
2023-03-05T18:53:26.669Z,63.89
2023-03-05T19:03:26.687Z,65.50
2023-03-05T19:13:32.973Z,66.85
2023-03-05T19:23:26.748Z,66.85
2023-03-05T19:33:27.263Z,68.26
2023-03-05T19:43:27.289Z,69.09
2023-03-05T19:53:27.283Z,69.85
2023-03-05T20:03:27.640Z,70.27
2023-03-05T20:13:27.959Z,71.51
2023-03-05T20:23:27.963Z,72.83
2023-03-05T20:33:29.960Z,72.38
2023-03-05T20:43:31.085Z,72.86
2023-03-05T20:53:28.772Z,73.63
2023-03-05T21:03:28.730Z,75.67
2023-03-05T21:13:29.004Z,75.78
2023-03-05T21:23:29.001Z,76.33
2023-03-05T21:33:29.401Z,77.27
2023-03-05T21:43:29.540Z,77.76
2023-03-05T21:53:29.504Z,78.59
2023-03-05T22:03:29.584Z,78.59
2023-03-05T22:13:30.783Z,78.77
2023-03-05T22:23:29.845Z,77.27
2023-03-05T22:33:30.235Z,77.93
2023-03-05T22:43:30.300Z,78.20
2023-03-05T22:53:30.707Z,79.00
2023-03-05T23:03:30.762Z,79.63
2023-03-05T23:13:30.982Z,78.07
2023-03-05T23:23:31.025Z,76.68
2023-03-05T23:33:32.264Z,78.63
2023-03-05T23:43:31.317Z,80.64
2023-03-05T23:53:31.613Z,80.64
